»·PEaware :: AAL788 KSAN-KLAS

AAL788 :: KSAN-KLAS

FLIGHT INFORMATION

Flight Status: Arrived
Operator:
American Airlines
More flights by this operator :: More flights under this callsign
Pilot: Ben F. (13029)
Aircraft: AIRBUS A320
(A320)
More flights by this aircraft type
Origin: KSAN San Diego Intl-Lindbergh
United States
Destination: KLAS McCarran Intl
United States
More flights between these airports :: More routes between these airports
Route: +PADRZ2 CHKNN SEBBY YELAH MISEN KEPEC6
File this flight plan on PilotEdge
Remarks: RMK / SIMBRIEF
Altitude:
(Current/Filed)
35,000ft
Speed:
(Current/Filed)
458kts
Departed: 10-Jun-20 08:29 PM
Arrived: 10-Jun-20 09:19 PM
Distance/Time
Traveled:
225nm/0:49
Distance/Time
To Go:
Arrived

Flight Plot

Page will automatically refresh every two minutes.

Flight plan parsing failed; only flown route is shown


Map Options




Map Legend


Flown Route
Filed Route
Departure Airport
Arrival Airport
Navaid (VOR, NDB)
Fix

Horizontal Profiles

Position Reports

Time Latitude Longitude Heading Altitude Ground
Speed
10-Jun-20 20:08 32.733414 -117.200771 264 24ft 0kts
10-Jun-20 20:09 32.733414 -117.200771 264 24ft 0kts
10-Jun-20 20:10 32.733414 -117.200771 264 24ft 0kts
10-Jun-20 20:11 32.733414 -117.200771 264 24ft 0kts
10-Jun-20 20:12 32.733414 -117.200771 264 24ft 0kts
10-Jun-20 20:13 32.733414 -117.200771 264 24ft 0kts
10-Jun-20 20:14 32.733414 -117.200771 264 24ft 0kts
10-Jun-20 20:15 32.733414 -117.200771 264 24ft 0kts
10-Jun-20 20:16 32.733426 -117.200639 263 24ft 2kts
10-Jun-20 20:17 32.733349 -117.199966 325 24ft 2kts
10-Jun-20 20:18 32.733058 -117.199920 14 24ft 0kts
10-Jun-20 20:19 32.733059 -117.199920 14 24ft 0kts
10-Jun-20 20:20 32.733059 -117.199920 14 24ft 0kts
10-Jun-20 20:21 32.733059 -117.199920 14 24ft 0kts
10-Jun-20 20:22 32.733059 -117.199920 14 24ft 0kts
10-Jun-20 20:23 32.734176 -117.199631 11 24ft 0kts
10-Jun-20 20:24 32.734200 -117.196596 105 24ft 24kts
10-Jun-20 20:25 32.731691 -117.186251 105 24ft 30kts
10-Jun-20 20:26 32.729767 -117.178365 103 24ft 21kts
10-Jun-20 20:27 32.729590 -117.176427 73 24ft 9kts
10-Jun-20 20:28 32.730917 -117.178786 285 24ft 73kts
10-Jun-20 20:29 32.747509 -117.227286 305 2400ft 190kts
10-Jun-20 20:30 32.783671 -117.290430 301 4891ft 272kts
10-Jun-20 20:31 32.829891 -117.365804 307 8458ft 292kts
10-Jun-20 20:32 32.881417 -117.445393 307 11157ft 333kts
10-Jun-20 20:33 32.941380 -117.538437 307 13546ft 366kts
10-Jun-20 20:34 33.004415 -117.636811 306 16070ft 383kts
10-Jun-20 20:35 33.072345 -117.738091 317 18287ft 400kts
10-Jun-20 20:36 33.158006 -117.825274 319 20288ft 414kts
10-Jun-20 20:37 33.244847 -117.911773 320 22090ft 426kts
10-Jun-20 20:38 33.337659 -118.002232 319 23817ft 436kts
10-Jun-20 20:39 33.432465 -118.095094 319 25423ft 444kts
10-Jun-20 20:40 33.529184 -118.190123 318 26923ft 452kts
10-Jun-20 20:41 33.636970 -118.268043 340 28271ft 463kts
10-Jun-20 20:42 33.765971 -118.262795 22 29439ft 477kts
10-Jun-20 20:43 33.864742 -118.157753 55 30429ft 484kts
10-Jun-20 20:44 33.942773 -118.026201 54 31790ft 481kts
10-Jun-20 20:45 34.020302 -117.894945 54 33044ft 479kts
10-Jun-20 20:46 34.098150 -117.764715 50 34228ft 476kts
10-Jun-20 20:47 34.181454 -117.643010 49 35003ft 473kts
10-Jun-20 20:48 34.264969 -117.520583 49 35020ft 472kts
10-Jun-20 20:49 34.348499 -117.397726 49 35051ft 472kts
10-Jun-20 20:50 34.431714 -117.274920 49 35049ft 472kts
10-Jun-20 20:51 34.514848 -117.151807 49 35044ft 471kts
10-Jun-20 20:52 34.597493 -117.029007 50 35037ft 472kts
10-Jun-20 20:53 34.680622 -116.905108 50 34089ft 474kts
10-Jun-20 20:54 34.762900 -116.781981 50 32302ft 470kts
10-Jun-20 20:55 34.845216 -116.658506 46 29812ft 466kts
10-Jun-20 20:56 34.942666 -116.558985 36 27614ft 452kts
10-Jun-20 20:57 35.039632 -116.464888 37 25432ft 440kts
10-Jun-20 20:58 35.134538 -116.373150 37 24055ft 433kts
10-Jun-20 20:59 35.228004 -116.283186 37 24041ft 432kts
10-Jun-20 21:00 35.321889 -116.192710 37 23410ft 424kts
10-Jun-20 21:01 35.408132 -116.098175 51 21286ft 412kts
10-Jun-20 21:02 35.477701 -115.989024 51 19208ft 400kts
10-Jun-20 21:03 35.545564 -115.883275 51 17036ft 390kts
10-Jun-20 21:04 35.610729 -115.781599 51 14066ft 365kts
10-Jun-20 21:05 35.669005 -115.690987 46 13087ft 313kts
10-Jun-20 21:06 35.747626 -115.651474 17 13084ft 308kts
10-Jun-20 21:07 35.829338 -115.619460 17 13085ft 308kts
10-Jun-20 21:08 35.911282 -115.587210 17 13063ft 312kts
10-Jun-20 21:09 35.981450 -115.531416 68 13047ft 317kts
10-Jun-20 21:10 36.013174 -115.431535 68 11970ft 305kts
10-Jun-20 21:11 36.028370 -115.336705 96 11113ft 278kts
10-Jun-20 21:12 36.021443 -115.242198 95 10736ft 273kts
10-Jun-20 21:13 36.014830 -115.148123 95 9925ft 273kts
10-Jun-20 21:14 36.008947 -115.059331 94 8508ft 245kts
10-Jun-20 21:15 36.026432 -114.985724 26 6666ft 245kts
10-Jun-20 21:16 36.082679 -115.014610 272 4894ft 246kts
10-Jun-20 21:17 36.073676 -115.099019 268 2526ft 238kts
10-Jun-20 21:18 36.073643 -115.151070 271 2120ft 34kts
10-Jun-20 21:19 36.074768 -115.155236 300 2120ft 0kts
10-Jun-20 21:21 36.074865 -115.155437 301 2120ft 3kts
10-Jun-20 21:22 36.077866 -115.157998 55 2120ft 16kts
10-Jun-20 21:23 36.077984 -115.150073 95 2120ft 26kts
10-Jun-20 21:24 36.077547 -115.140828 90 2120ft 25kts
10-Jun-20 21:25 36.079820 -115.136548 42 2120ft 14kts
10-Jun-20 21:26 36.080180 -115.136079 49 2120ft 0kts

Navigation Log

Ident Type
Flight plan parsing failed, navigation log unavailable